createdAt,value
2022-10-22T00:01:06.779Z,81.33
2022-10-22T00:03:35.308Z,81.12
2022-10-22T00:06:03.657Z,81.06
2022-10-22T00:08:33.363Z,80.91
2022-10-22T00:11:09.572Z,81.11
2022-10-22T00:13:38.938Z,81.12
2022-10-22T00:16:07.840Z,81.14
2022-10-22T00:18:36.272Z,81.03
2022-10-22T00:21:04.645Z,81.00
2022-10-22T00:23:35.064Z,80.88
2022-10-22T00:26:03.391Z,80.53
2022-10-22T00:28:31.603Z,80.81
2022-10-22T00:31:01.071Z,81.17
2022-10-22T00:33:30.983Z,81.19
2022-10-22T00:35:59.585Z,81.34
2022-10-22T00:38:27.913Z,81.44
2022-10-22T00:40:57.723Z,81.36
2022-10-22T00:43:26.026Z,81.09
2022-10-22T00:45:55.330Z,81.37
2022-10-22T00:48:27.055Z,81.81
2022-10-22T00:50:58.007Z,82.00
2022-10-22T00:53:30.038Z,81.88
2022-10-22T00:56:00.231Z,82.06
2022-10-22T00:58:32.310Z,81.87
2022-10-22T01:01:01.251Z,81.87
2022-10-22T01:03:30.338Z,81.52
2022-10-22T01:06:00.860Z,81.61
2022-10-22T01:08:38.583Z,81.63
2022-10-22T01:11:20.962Z,81.43
2022-10-22T01:13:56.803Z,81.16
2022-10-22T01:16:35.223Z,81.23
2022-10-22T01:19:20.303Z,81.37
2022-10-22T01:21:53.527Z,81.88
2022-10-22T01:24:41.232Z,81.68
2022-10-22T01:27:31.094Z,81.35
2022-10-22T01:30:04.113Z,81.56
2022-10-22T01:32:37.939Z,81.43
2022-10-22T01:35:10.107Z,81.79
2022-10-22T01:37:43.357Z,81.96
2022-10-22T01:40:13.185Z,82.14
2022-10-22T01:42:41.358Z,82.21
2022-10-22T01:45:15.694Z,82.22
2022-10-22T01:47:53.226Z,82.35
2022-10-22T01:50:43.049Z,82.45
2022-10-22T01:53:26.754Z,82.61
2022-10-22T01:56:18.604Z,82.40
2022-10-22T01:58:56.586Z,82.54
2022-10-22T02:01:33.518Z,82.75
2022-10-22T02:04:11.585Z,82.64
2022-10-22T02:06:42.946Z,82.97
2022-10-22T02:09:17.179Z,82.67
2022-10-22T02:11:46.411Z,82.76
2022-10-22T02:14:18.074Z,82.86
2022-10-22T02:16:50.728Z,82.87
2022-10-22T02:19:25.687Z,83.04
2022-10-22T02:21:55.098Z,83.10
2022-10-22T02:24:24.051Z,82.98
2022-10-22T02:27:00.727Z,83.08
2022-10-22T02:29:36.371Z,83.07
2022-10-22T02:32:10.437Z,82.71
2022-10-22T02:34:39.053Z,82.75
2022-10-22T02:37:07.882Z,82.85
2022-10-22T02:39:37.858Z,82.91
2022-10-22T02:42:06.626Z,83.15
2022-10-22T02:44:34.932Z,83.04
2022-10-22T02:47:03.494Z,83.18
2022-10-22T02:49:33.168Z,83.23
2022-10-22T02:52:01.841Z,83.26
2022-10-22T02:54:30.022Z,83.38
2022-10-22T02:56:58.413Z,83.26
2022-10-22T02:59:26.733Z,83.32
2022-10-22T03:01:55.163Z,83.19
2022-10-22T03:04:23.466Z,83.18
2022-10-22T03:06:53.126Z,83.00
2022-10-22T03:09:24.071Z,82.93
2022-10-22T03:11:53.394Z,82.55
2022-10-22T03:14:21.726Z,82.46
2022-10-22T03:16:50.100Z,82.62
2022-10-22T03:19:18.438Z,82.48
2022-10-22T03:21:50.647Z,82.51
2022-10-22T03:24:27.023Z,82.22
2022-10-22T03:26:55.874Z,82.06
2022-10-22T03:29:26.490Z,81.89
2022-10-22T03:31:55.524Z,81.50
2022-10-22T03:34:23.712Z,81.35
2022-10-22T03:36:53.534Z,81.58
2022-10-22T03:39:24.990Z,81.36
2022-10-22T03:41:54.066Z,81.52
2022-10-22T03:44:23.720Z,81.31
2022-10-22T03:46:52.044Z,81.11
2022-10-22T03:49:20.310Z,81.10
2022-10-22T03:51:48.528Z,81.06
2022-10-22T03:54:17.437Z,80.86
2022-10-22T03:56:47.062Z,80.70
2022-10-22T03:59:15.617Z,80.54
2022-10-22T04:01:46.619Z,80.24
2022-10-22T04:04:14.954Z,80.24
2022-10-22T04:06:43.172Z,80.59
2022-10-22T04:09:11.533Z,80.71
2022-10-22T04:11:39.840Z,80.57
2022-10-22T04:14:09.491Z,80.52
2022-10-22T04:16:37.793Z,80.84
2022-10-22T04:19:06.030Z,81.12
2022-10-22T04:21:34.605Z,80.64
2022-10-22T04:24:03.044Z,80.67
2022-10-22T04:26:32.244Z,81.09
2022-10-22T04:29:00.532Z,81.09
2022-10-22T04:31:30.232Z,80.65
2022-10-22T04:34:00.349Z,80.70
2022-10-22T04:36:29.921Z,80.45
2022-10-22T04:39:00.106Z,80.70
2022-10-22T04:41:30.482Z,80.11
2022-10-22T04:43:59.720Z,80.27
2022-10-22T04:46:31.343Z,80.34
2022-10-22T04:48:59.598Z,80.25
2022-10-22T04:51:28.995Z,80.10
2022-10-22T04:53:57.637Z,79.76
2022-10-22T04:56:27.778Z,79.99
2022-10-22T04:58:58.823Z,79.88
2022-10-22T05:01:30.937Z,79.92
2022-10-22T05:04:01.130Z,79.79
2022-10-22T05:06:32.040Z,79.90
2022-10-22T05:09:02.069Z,79.56
2022-10-22T05:11:33.444Z,80.07
2022-10-22T05:14:05.389Z,80.36
2022-10-22T05:16:36.101Z,80.09
2022-10-22T05:19:04.677Z,80.13
2022-10-22T05:21:33.010Z,79.79
2022-10-22T05:24:01.372Z,79.80
2022-10-22T05:26:30.301Z,79.51
2022-10-22T05:28:58.783Z,79.23
2022-10-22T05:31:28.905Z,79.40
2022-10-22T05:33:58.620Z,79.61
2022-10-22T05:36:26.964Z,79.56
2022-10-22T05:38:55.600Z,79.35
2022-10-22T05:41:25.668Z,79.33
2022-10-22T05:43:56.959Z,79.63
2022-10-22T05:46:27.499Z,79.66
2022-10-22T05:48:59.646Z,79.62
2022-10-22T05:51:29.762Z,79.54
2022-10-22T05:53:59.283Z,79.82
2022-10-22T05:56:28.555Z,79.73
2022-10-22T05:58:58.257Z,79.59
2022-10-22T06:01:28.551Z,79.74
2022-10-22T06:03:59.251Z,79.69
2022-10-22T06:06:30.368Z,79.29
2022-10-22T06:09:02.457Z,79.21
2022-10-22T06:11:34.179Z,79.67
2022-10-22T06:14:03.640Z,79.49
2022-10-22T06:16:32.769Z,79.67
2022-10-22T06:19:03.106Z,79.41
2022-10-22T06:21:31.950Z,79.62
2022-10-22T06:24:01.609Z,79.50
2022-10-22T06:26:30.736Z,79.70
2022-10-22T06:28:59.325Z,80.34
2022-10-22T06:31:28.372Z,80.26
2022-10-22T06:33:57.929Z,79.93
2022-10-22T06:36:27.696Z,79.75
2022-10-22T06:38:57.191Z,79.75
2022-10-22T06:41:28.797Z,80.00
2022-10-22T06:43:58.567Z,80.07
2022-10-22T06:46:27.485Z,80.14
2022-10-22T06:48:59.254Z,80.04
2022-10-22T06:51:29.319Z,80.05
2022-10-22T06:53:58.689Z,80.25
2022-10-22T06:56:28.879Z,80.23
2022-10-22T06:58:58.964Z,80.45
2022-10-22T07:01:29.769Z,80.24
2022-10-22T07:03:58.547Z,80.15
2022-10-22T07:06:29.546Z,80.19
2022-10-22T07:08:59.697Z,80.44
2022-10-22T07:11:30.049Z,80.33
2022-10-22T07:13:59.958Z,79.97
2022-10-22T07:16:32.175Z,79.01
2022-10-22T07:19:01.487Z,78.90
2022-10-22T07:21:32.017Z,79.07
2022-10-22T07:24:00.548Z,78.75
2022-10-22T07:26:31.082Z,78.56
2022-10-22T07:29:00.099Z,77.75
2022-10-22T07:31:28.992Z,77.30
2022-10-22T07:33:57.357Z,77.36
2022-10-22T07:36:25.568Z,77.22
2022-10-22T07:38:58.467Z,77.09
2022-10-22T07:41:27.719Z,77.29
2022-10-22T07:43:56.031Z,76.91
2022-10-22T07:46:24.983Z,76.33
2022-10-22T07:48:53.575Z,76.44
2022-10-22T07:51:22.129Z,76.28
2022-10-22T07:53:50.568Z,76.58
2022-10-22T07:56:20.273Z,76.37
2022-10-22T07:58:48.649Z,76.53
2022-10-22T08:01:17.057Z,76.23
2022-10-22T08:03:45.775Z,76.59
2022-10-22T08:06:14.992Z,76.55
2022-10-22T08:08:43.604Z,76.30
2022-10-22T08:11:12.429Z,76.28
2022-10-22T08:13:45.349Z,75.61
2022-10-22T08:16:14.899Z,75.44
2022-10-22T08:18:43.335Z,75.79
2022-10-22T08:21:11.794Z,76.31
2022-10-22T08:23:40.255Z,76.82
2022-10-22T08:26:08.498Z,76.98
2022-10-22T08:28:37.903Z,76.80
2022-10-22T08:31:09.068Z,76.85
2022-10-22T08:33:39.549Z,76.69
2022-10-22T08:36:08.871Z,76.66
2022-10-22T08:38:37.444Z,76.82
2022-10-22T08:41:11.663Z,76.94
2022-10-22T08:44:05.736Z,76.65
2022-10-22T08:47:04.440Z,76.71
2022-10-22T08:49:39.862Z,76.78
2022-10-22T08:52:14.665Z,76.66
2022-10-22T08:54:52.430Z,76.23
2022-10-22T09:00:07.250Z,76.93
2022-10-22T09:02:48.413Z,77.00
2022-10-22T09:05:33.086Z,76.74
2022-10-22T09:08:01.514Z,76.78
2022-10-22T09:10:34.091Z,76.58
2022-10-22T09:13:02.445Z,76.50
2022-10-22T09:15:31.521Z,77.19
2022-10-22T09:18:17.956Z,77.11
2022-10-22T09:20:51.361Z,77.43
2022-10-22T09:23:30.641Z,77.33
2022-10-22T09:25:59.315Z,77.50
2022-10-22T09:28:27.644Z,77.37
2022-10-22T09:30:56.009Z,77.24
2022-10-22T09:33:28.962Z,77.32
2022-10-22T09:35:59.660Z,77.28
2022-10-22T09:38:29.678Z,77.29
2022-10-22T09:40:59.722Z,76.71
2022-10-22T09:43:28.333Z,76.65
2022-10-22T09:46:01.954Z,76.77
2022-10-22T09:48:34.750Z,76.88
2022-10-22T09:51:07.935Z,76.29
2022-10-22T09:53:40.682Z,76.14
2022-10-22T09:56:26.662Z,76.06
2022-10-22T09:58:57.802Z,75.80
2022-10-22T10:01:30.936Z,75.90
2022-10-22T10:04:09.822Z,75.85
2022-10-22T10:06:40.586Z,75.94
2022-10-22T10:09:17.113Z,76.11
2022-10-22T10:11:49.917Z,76.44
2022-10-22T10:14:23.227Z,76.17
2022-10-22T10:16:59.816Z,76.58
2022-10-22T10:20:01.409Z,76.51
2022-10-22T10:22:45.481Z,76.13
2022-10-22T10:25:33.756Z,76.13
2022-10-22T10:28:13.895Z,76.49
2022-10-22T10:30:48.459Z,76.35
2022-10-22T10:33:25.137Z,76.39
2022-10-22T10:36:03.371Z,75.58
2022-10-22T10:38:40.577Z,75.16
2022-10-22T10:41:18.834Z,75.01
2022-10-22T10:44:00.982Z,73.81
2022-10-22T10:46:41.068Z,73.51
2022-10-22T10:49:12.022Z,72.94
2022-10-22T10:51:51.793Z,72.39
2022-10-22T10:54:36.632Z,72.83
2022-10-22T10:57:13.262Z,72.79
2022-10-22T10:59:52.529Z,73.42
2022-10-22T11:02:50.812Z,73.40
2022-10-22T11:05:39.930Z,73.55
2022-10-22T11:08:15.574Z,73.29
2022-10-22T11:10:47.661Z,73.38
2022-10-22T11:13:25.509Z,73.44
2022-10-22T11:15:59.655Z,73.33
2022-10-22T11:18:33.612Z,73.57
2022-10-22T11:21:19.016Z,73.06
2022-10-22T11:23:54.679Z,73.25
2022-10-22T11:26:33.508Z,73.26
2022-10-22T11:29:04.909Z,73.34
2022-10-22T11:31:33.817Z,73.64
2022-10-22T11:34:32.024Z,73.91
2022-10-22T11:36:57.432Z,73.65
2022-10-22T11:39:35.093Z,74.02
2022-10-22T11:42:06.131Z,72.56
2022-10-22T11:44:47.547Z,72.21
2022-10-22T11:47:21.402Z,72.21
2022-10-22T11:49:59.107Z,72.72
2022-10-22T11:52:39.779Z,72.16
2022-10-22T11:55:33.426Z,72.30
2022-10-22T11:58:02.963Z,72.55
2022-10-22T12:00:40.814Z,72.97
2022-10-22T12:03:18.283Z,71.77
2022-10-22T12:05:47.534Z,71.46
2022-10-22T12:08:24.602Z,71.31
2022-10-22T12:11:06.784Z,70.57
2022-10-22T12:13:58.659Z,71.62
2022-10-22T12:16:50.689Z,71.12
2022-10-22T12:19:19.756Z,70.79
2022-10-22T12:21:53.625Z,70.14
2022-10-22T12:24:24.444Z,70.58
2022-10-22T12:26:54.131Z,70.57
2022-10-22T12:29:25.673Z,70.28
2022-10-22T12:31:55.196Z,71.13
2022-10-22T12:34:25.487Z,70.46
2022-10-22T12:36:55.125Z,70.11
2022-10-22T12:39:27.776Z,69.90
2022-10-22T12:41:57.530Z,68.69
2022-10-22T12:44:25.723Z,67.38
2022-10-22T12:46:57.026Z,68.35
2022-10-22T12:49:40.454Z,68.67
2022-10-22T12:52:16.099Z,69.05
2022-10-22T12:54:48.326Z,68.62
2022-10-22T12:57:20.288Z,68.58
2022-10-22T12:59:51.200Z,67.68
2022-10-22T13:02:24.634Z,67.90
2022-10-22T13:05:17.281Z,67.47
2022-10-22T13:07:49.830Z,68.12
2022-10-22T13:10:26.448Z,67.49
2022-10-22T13:12:59.046Z,67.27
2022-10-22T13:15:37.630Z,67.66
2022-10-22T13:18:08.407Z,67.04
2022-10-22T13:20:38.606Z,67.18
2022-10-22T13:23:07.740Z,66.49
2022-10-22T13:25:38.734Z,65.82
2022-10-22T13:28:21.742Z,65.16
2022-10-22T13:30:55.576Z,64.49
2022-10-22T13:33:27.479Z,64.03
2022-10-22T13:35:57.343Z,63.80
2022-10-22T13:38:29.190Z,63.74
2022-10-22T13:40:58.745Z,64.49
2022-10-22T13:43:28.424Z,63.74
2022-10-22T13:46:00.050Z,63.91
2022-10-22T13:48:30.219Z,63.61
2022-10-22T13:50:58.628Z,63.70
2022-10-22T13:53:29.249Z,63.47
2022-10-22T13:55:57.707Z,63.57
2022-10-22T13:58:26.169Z,63.00
2022-10-22T14:00:58.289Z,63.40
2022-10-22T14:03:31.430Z,63.39
2022-10-22T14:05:59.743Z,64.45
2022-10-22T14:08:29.155Z,64.73
2022-10-22T14:10:57.597Z,65.30
2022-10-22T14:13:26.740Z,65.85
2022-10-22T14:15:56.595Z,66.38
2022-10-22T14:18:31.643Z,66.78
2022-10-22T14:21:04.869Z,67.30
2022-10-22T14:23:35.199Z,67.51
2022-10-22T14:26:03.839Z,67.61
2022-10-22T14:28:41.010Z,68.34
2022-10-22T14:31:12.544Z,68.41
2022-10-22T14:33:41.311Z,68.69
2022-10-22T14:36:10.926Z,68.36
2022-10-22T14:38:39.359Z,68.38
2022-10-22T14:41:19.322Z,67.77
2022-10-22T14:43:47.662Z,67.00
2022-10-22T14:46:18.801Z,66.84
2022-10-22T14:48:48.459Z,66.29
2022-10-22T14:51:19.803Z,65.58
2022-10-22T14:53:48.412Z,65.86
2022-10-22T14:56:21.369Z,66.35
2022-10-22T14:58:50.105Z,66.75
2022-10-22T15:01:19.754Z,67.35
2022-10-22T15:03:48.062Z,67.02
2022-10-22T15:06:16.371Z,67.11
2022-10-22T15:08:46.021Z,66.66
2022-10-22T15:11:14.963Z,66.18
2022-10-22T15:13:43.772Z,66.35
2022-10-22T15:16:14.465Z,66.63
2022-10-22T15:18:44.188Z,66.64
2022-10-22T15:21:16.950Z,66.91
2022-10-22T15:23:45.335Z,66.83
2022-10-22T15:26:15.026Z,66.81
2022-10-22T15:28:44.074Z,67.23
2022-10-22T15:31:15.187Z,66.66
2022-10-22T15:33:45.934Z,67.19
2022-10-22T15:36:17.988Z,67.51
2022-10-22T15:38:46.309Z,67.41
2022-10-22T15:41:14.538Z,67.71
2022-10-22T15:43:42.849Z,68.05
2022-10-22T15:46:14.260Z,67.80
2022-10-22T15:48:43.038Z,68.07
2022-10-22T15:51:14.990Z,67.70
2022-10-22T15:53:43.693Z,67.81
2022-10-22T15:56:12.884Z,67.78
2022-10-22T15:58:41.551Z,67.86
2022-10-22T16:01:12.105Z,67.89
2022-10-22T16:03:41.052Z,68.06
2022-10-22T16:06:09.948Z,67.97
2022-10-22T16:08:40.383Z,68.41
2022-10-22T16:11:08.723Z,68.61
2022-10-22T16:13:38.065Z,68.74
2022-10-22T16:16:08.296Z,68.97
2022-10-22T16:18:36.654Z,69.53
2022-10-22T16:21:05.121Z,69.76
2022-10-22T16:23:35.127Z,70.38
2022-10-22T16:26:04.911Z,70.78
2022-10-22T16:31:06.079Z,70.85
2022-10-22T16:33:41.426Z,71.48
2022-10-22T16:36:14.154Z,71.62
2022-10-22T16:38:44.358Z,71.75
2022-10-22T16:41:17.442Z,71.73
2022-10-22T16:43:48.517Z,72.17
2022-10-22T16:46:19.858Z,72.15
2022-10-22T16:48:51.658Z,71.97
2022-10-22T16:51:24.861Z,72.53
2022-10-22T16:53:55.757Z,72.65
2022-10-22T16:56:26.788Z,72.58
2022-10-22T16:58:56.957Z,72.98
2022-10-22T17:01:27.076Z,73.26
2022-10-22T17:03:55.983Z,73.28
2022-10-22T17:06:26.382Z,73.50
2022-10-22T17:08:54.822Z,73.56
2022-10-22T17:11:25.578Z,73.56
2022-10-22T17:13:55.414Z,73.91
2022-10-22T17:16:25.516Z,74.29
2022-10-22T17:18:55.487Z,74.56
2022-10-22T17:21:24.827Z,74.78
2022-10-22T17:23:56.723Z,74.91
2022-10-22T17:26:27.830Z,75.03
2022-10-22T17:28:56.321Z,74.88
2022-10-22T17:31:27.081Z,75.11
2022-10-22T17:33:57.468Z,75.10
2022-10-22T17:36:30.488Z,75.31
2022-10-22T17:39:05.880Z,75.40
2022-10-22T17:41:37.749Z,75.31
2022-10-22T17:44:15.080Z,75.42
2022-10-22T17:46:50.785Z,75.41
2022-10-22T17:49:25.419Z,75.54
2022-10-22T17:51:53.813Z,76.03
2022-10-22T17:54:22.018Z,76.19
2022-10-22T17:56:52.793Z,76.16
2022-10-22T17:59:22.086Z,76.15
2022-10-22T18:01:50.693Z,76.32
2022-10-22T18:04:22.675Z,76.28
2022-10-22T18:06:54.184Z,75.99
2022-10-22T18:09:22.738Z,75.89
2022-10-22T18:11:54.237Z,76.17
2022-10-22T18:14:24.158Z,76.17
2022-10-22T18:16:52.520Z,76.04
2022-10-22T18:19:24.714Z,76.31
2022-10-22T18:21:53.224Z,76.03
2022-10-22T18:24:21.541Z,76.13
2022-10-22T18:26:49.962Z,76.40
2022-10-22T18:29:20.818Z,76.64
2022-10-22T18:31:50.007Z,76.85
2022-10-22T18:34:21.563Z,76.71
2022-10-22T18:36:52.128Z,76.91
2022-10-22T18:39:20.584Z,77.13
2022-10-22T18:41:49.015Z,77.20
2022-10-22T18:44:18.035Z,77.20
2022-10-22T18:46:47.795Z,77.58
2022-10-22T18:49:19.365Z,77.54
2022-10-22T18:51:48.923Z,77.51
2022-10-22T18:54:24.894Z,77.25
2022-10-22T18:56:53.738Z,77.69
2022-10-22T18:59:24.319Z,77.43
2022-10-22T19:01:55.490Z,74.37
2022-10-22T19:04:23.765Z,75.90
2022-10-22T19:06:52.994Z,76.53
2022-10-22T19:09:21.338Z,76.87
2022-10-22T19:11:49.856Z,77.17
2022-10-22T19:14:19.668Z,77.61
2022-10-22T19:16:48.146Z,77.91
2022-10-22T19:19:20.478Z,77.55
2022-10-22T19:21:49.406Z,77.64
2022-10-22T19:24:19.404Z,77.88
2022-10-22T19:26:48.805Z,77.86
2022-10-22T19:29:19.058Z,77.57
2022-10-22T19:31:48.116Z,77.81
2022-10-22T19:34:17.900Z,77.51
2022-10-22T19:36:46.284Z,78.04
2022-10-22T19:39:16.323Z,77.89
2022-10-22T19:41:44.822Z,78.38
2022-10-22T19:44:13.143Z,78.26
2022-10-22T19:46:41.492Z,78.78
2022-10-22T19:49:12.582Z,79.30
2022-10-22T19:51:42.440Z,79.41
2022-10-22T19:54:18.549Z,79.41
2022-10-22T19:56:47.756Z,79.54
2022-10-22T19:59:17.104Z,79.50
2022-10-22T20:01:45.349Z,79.45
2022-10-22T20:04:16.878Z,79.29
2022-10-22T20:06:47.057Z,79.48
2022-10-22T20:09:15.489Z,79.84
2022-10-22T20:11:44.066Z,79.77
2022-10-22T20:14:14.097Z,80.12
2022-10-22T20:16:42.983Z,80.36
2022-10-22T20:19:16.018Z,80.79
2022-10-22T20:21:48.584Z,81.32
2022-10-22T20:24:17.026Z,81.24
2022-10-22T20:26:47.336Z,81.37
2022-10-22T20:29:16.311Z,81.72
2022-10-22T20:31:44.623Z,81.67
2022-10-22T20:34:12.972Z,81.95
2022-10-22T20:36:41.795Z,82.10
2022-10-22T20:39:15.608Z,82.10
2022-10-22T20:41:43.874Z,82.21
2022-10-22T20:44:15.383Z,82.29
2022-10-22T20:46:44.547Z,82.55
2022-10-22T20:49:16.011Z,82.61
2022-10-22T20:51:44.959Z,82.96
2022-10-22T20:54:16.581Z,83.11
2022-10-22T20:56:47.994Z,82.82
2022-10-22T20:59:16.659Z,82.79
2022-10-22T21:01:48.869Z,82.54
2022-10-22T21:04:18.189Z,82.49
2022-10-22T21:06:48.537Z,82.88
2022-10-22T21:09:18.244Z,82.85
2022-10-22T21:11:47.025Z,82.33
2022-10-22T21:14:17.211Z,82.48
2022-10-22T21:16:49.383Z,82.21
2022-10-22T21:19:19.298Z,82.41
2022-10-22T21:21:47.605Z,82.89
2022-10-22T21:24:17.336Z,83.05
2022-10-22T21:26:45.787Z,83.33
2022-10-22T21:29:14.307Z,83.38
2022-10-22T21:31:43.355Z,83.53
2022-10-22T21:34:13.089Z,83.55
2022-10-22T21:36:41.723Z,83.32
2022-10-22T21:39:10.049Z,83.26
2022-10-22T21:41:39.755Z,83.49
2022-10-22T21:44:08.227Z,84.04
2022-10-22T21:46:36.773Z,84.23
2022-10-22T21:49:05.618Z,84.28
2022-10-22T21:51:38.171Z,84.32
2022-10-22T21:54:06.720Z,84.36
2022-10-22T21:56:36.588Z,84.56
2022-10-22T21:59:07.782Z,84.62
2022-10-22T22:01:36.805Z,84.46
2022-10-22T22:04:05.226Z,84.27
2022-10-22T22:06:35.147Z,84.48
2022-10-22T22:09:04.393Z,84.64
2022-10-22T22:11:32.953Z,84.79
2022-10-22T22:14:01.239Z,84.70
2022-10-22T22:16:33.535Z,84.48
2022-10-22T22:19:05.878Z,84.97
2022-10-22T22:21:34.999Z,84.97
2022-10-22T22:24:04.182Z,85.38
2022-10-22T22:26:33.014Z,85.63
2022-10-22T22:29:01.783Z,85.79
2022-10-22T22:31:33.209Z,85.80
2022-10-22T22:34:03.763Z,86.10
2022-10-22T22:36:35.652Z,86.64
2022-10-22T22:39:06.606Z,87.29
2022-10-22T22:41:36.020Z,88.06
2022-10-22T22:44:04.487Z,88.12
2022-10-22T22:46:34.178Z,88.57
2022-10-22T22:49:03.578Z,88.77
2022-10-22T22:51:32.414Z,89.73
2022-10-22T22:54:01.315Z,89.80
2022-10-22T22:56:31.919Z,89.55
2022-10-22T22:59:00.213Z,89.84
2022-10-22T23:01:30.265Z,90.21
2022-10-22T23:04:02.130Z,90.55
2022-10-22T23:06:32.871Z,90.72
2022-10-22T23:09:01.293Z,90.84
2022-10-22T23:11:30.160Z,90.98
2022-10-22T23:14:00.525Z,90.84
2022-10-22T23:16:31.109Z,90.95
2022-10-22T23:19:01.870Z,90.71
2022-10-22T23:21:32.249Z,91.06
2022-10-22T23:24:02.683Z,91.25
2022-10-22T23:26:33.467Z,91.26
2022-10-22T23:29:03.219Z,91.17
2022-10-22T23:31:31.544Z,90.92
2022-10-22T23:34:01.854Z,91.10
2022-10-22T23:36:30.431Z,91.14
2022-10-22T23:38:58.685Z,91.05
2022-10-22T23:41:26.934Z,90.80
2022-10-22T23:43:55.230Z,90.74
2022-10-22T23:46:23.482Z,90.92
2022-10-22T23:48:53.863Z,90.88
2022-10-22T23:51:23.992Z,90.64
2022-10-22T23:53:57.291Z,90.47
2022-10-22T23:56:25.987Z,90.74
2022-10-22T23:58:55.122Z,90.68
